Time,TemperatureF,DewpointF,PressureIn,WindDirection,WindDirectionDegrees,WindSpeedMPH,WindSpeedGustMPH,Humidity,HourlyPrecipIn,Conditions,Clouds,dailyrainin,SoftwareType,DateUTC
2013-12-05 00:10:00,42.6,38.1,29.95,South,180,0.0,-999.0,84,-99.99,,,0.00,Acu-Link.com,2013-12-05 05:10:00,
2013-12-05 00:26:00,42.6,38.1,29.94,South,180,0.0,-999.0,84,-99.99,,,0.00,Acu-Link.com,2013-12-05 05:26:00,
2013-12-05 00:41:00,42.6,38.1,29.94,South,180,0.0,-999.0,84,-99.99,,,0.00,Acu-Link.com,2013-12-05 05:41:00,
2013-12-05 00:56:00,42.8,38.3,29.94,South,180,0.0,-999.0,84,-99.99,,,0.00,Acu-Link.com,2013-12-05 05:56:00,
2013-12-05 01:11:00,42.8,38.3,29.94,South,180,0.0,-999.0,84,-99.99,,,0.00,Acu-Link.com,2013-12-05 06:11:00,
2013-12-05 01:27:00,43.2,39.0,29.93,South,180,0.0,-999.0,85,-99.99,,,0.00,Acu-Link.com,2013-12-05 06:27:00,
2013-12-05 01:42:00,43.2,39.3,29.92,South,180,0.0,-999.0,86,-99.99,,,0.00,Acu-Link.com,2013-12-05 06:42:00,
2013-12-05 01:57:00,43.2,39.3,29.91,South,180,0.0,-999.0,86,-99.99,,,0.00,Acu-Link.com,2013-12-05 06:57:00,
2013-12-05 02:12:00,43.2,39.3,29.92,South,180,0.0,-999.0,86,-99.99,,,0.00,Acu-Link.com,2013-12-05 07:12:00,
2013-12-05 02:27:00,43.3,39.7,29.92,South,180,0.0,-999.0,87,-99.99,,,0.00,Acu-Link.com,2013-12-05 07:27:00,
2013-12-05 02:43:00,43.5,40.2,29.92,South,180,0.0,-999.0,88,-99.99,,,0.00,Acu-Link.com,2013-12-05 07:43:00,
2013-12-05 02:58:00,43.7,40.7,29.94,South,180,0.0,-999.0,89,-99.99,,,0.00,Acu-Link.com,2013-12-05 07:58:00,
2013-12-05 03:13:00,44.1,41.6,29.93,South,180,0.0,-999.0,91,-99.99,,,0.00,Acu-Link.com,2013-12-05 08:13:00,
2013-12-05 03:28:00,44.1,41.9,29.91,South,180,0.0,-999.0,92,-99.99,,,0.00,Acu-Link.com,2013-12-05 08:28:00,
2013-12-05 03:44:00,43.9,41.7,29.91,South,180,0.0,-999.0,92,-99.99,,,0.00,Acu-Link.com,2013-12-05 08:44:00,
2013-12-05 03:59:00,44.1,42.2,29.91,South,180,0.0,-999.0,93,-99.99,,,0.00,Acu-Link.com,2013-12-05 08:59:00,
2013-12-05 04:14:00,44.2,42.3,29.91,South,180,0.0,-999.0,93,-99.99,,,0.00,Acu-Link.com,2013-12-05 09:14:00,
2013-12-05 04:31:00,44.4,42.8,29.91,South,180,0.0,-999.0,94,-99.99,,,0.00,Acu-Link.com,2013-12-05 09:31:00,
2013-12-05 04:48:00,44.4,42.8,29.91,South,180,0.0,-999.0,94,-99.99,,,0.00,Acu-Link.com,2013-12-05 09:48:00,
2013-12-05 05:22:00,44.4,42.8,29.89,South,180,0.0,-999.0,94,-99.99,,,0.00,Acu-Link.com,2013-12-05 10:22:00,
2013-12-05 05:58:00,44.4,42.8,29.87,South,180,0.0,-999.0,94,-99.99,,,0.00,Acu-Link.com,2013-12-05 10:58:00,
2013-12-05 06:13:00,44.6,43.0,29.90,South,180,0.0,-999.0,94,-99.99,,,0.00,Acu-Link.com,2013-12-05 11:13:00,
2013-12-05 06:28:00,45.0,43.4,29.89,South,180,0.0,-999.0,94,-99.99,,,0.00,Acu-Link.com,2013-12-05 11:28:00,
2013-12-05 06:44:00,45.9,44.8,29.89,South,180,0.0,-999.0,96,-99.99,,,0.00,Acu-Link.com,2013-12-05 11:44:00,
2013-12-05 06:59:00,45.9,44.8,29.88,South,180,0.0,-999.0,96,-99.99,,,0.00,Acu-Link.com,2013-12-05 11:59:00,
2013-12-05 07:14:00,45.5,44.4,29.89,South,180,0.0,-999.0,96,-99.99,,,0.00,Acu-Link.com,2013-12-05 12:14:00,
2013-12-05 07:29:00,45.5,44.2,29.89,South,180,0.0,-999.0,95,-99.99,,,0.00,Acu-Link.com,2013-12-05 12:29:00,
2013-12-05 07:45:00,46.0,44.6,29.88,SE,135,0.0,-999.0,95,-99.99,,,0.00,Acu-Link.com,2013-12-05 12:45:00,
2013-12-05 08:00:00,46.0,44.6,29.88,SE,135,0.0,-999.0,95,-99.99,,,0.00,Acu-Link.com,2013-12-05 13:00:00,
2013-12-05 08:15:00,46.2,44.8,29.89,SE,135,0.0,-999.0,95,-99.99,,,0.00,Acu-Link.com,2013-12-05 13:15:00,
2013-12-05 08:30:00,46.6,45.2,29.89,SE,135,0.0,-999.0,95,-99.99,,,0.00,Acu-Link.com,2013-12-05 13:30:00,
2013-12-05 08:45:00,47.3,45.9,29.90,SE,135,0.0,-999.0,95,-99.99,,,0.00,Acu-Link.com,2013-12-05 13:45:00,
2013-12-05 09:00:00,47.7,46.3,29.89,West,270,0.0,-999.0,95,-99.99,,,0.00,Acu-Link.com,2013-12-05 14:00:00,
2013-12-05 09:16:00,47.8,46.4,29.90,West,270,0.0,-999.0,95,-99.99,,,0.00,Acu-Link.com,2013-12-05 14:16:00,
2013-12-05 09:31:00,48.2,46.8,29.90,West,270,0.0,-999.0,95,-99.99,,,0.00,Acu-Link.com,2013-12-05 14:31:00,
2013-12-05 09:46:00,48.6,47.2,29.89,West,270,0.0,-999.0,95,-99.99,,,0.00,Acu-Link.com,2013-12-05 14:46:00,
2013-12-05 10:17:00,49.8,48.4,29.89,West,270,0.0,-999.0,95,-99.99,,,0.00,Acu-Link.com,2013-12-05 15:17:00,
2013-12-05 10:32:00,50.5,49.1,29.88,West,270,0.0,-999.0,95,-99.99,,,0.00,Acu-Link.com,2013-12-05 15:32:00,
2013-12-05 10:47:00,51.3,49.9,29.87,ENE,67,0.0,-999.0,95,-99.99,,,0.00,Acu-Link.com,2013-12-05 15:47:00,
2013-12-05 11:02:00,52.2,50.5,29.86,SE,135,2.2,-999.0,94,-99.99,,,0.00,Acu-Link.com,2013-12-05 16:02:00,
2013-12-05 11:18:00,52.7,51.0,29.86,West,270,0.0,-999.0,94,-99.99,,,0.00,Acu-Link.com,2013-12-05 16:18:00,
2013-12-05 11:33:00,52.9,51.2,29.86,South,180,0.0,-999.0,94,-99.99,,,0.00,Acu-Link.com,2013-12-05 16:33:00,
2013-12-05 11:48:00,53.1,51.4,29.85,South,180,0.0,-999.0,94,-99.99,,,0.00,Acu-Link.com,2013-12-05 16:48:00,
2013-12-05 12:03:00,53.1,51.4,29.85,South,180,0.0,-999.0,94,-99.99,,,0.00,Acu-Link.com,2013-12-05 17:03:00,
2013-12-05 12:19:00,53.1,51.4,29.84,South,180,0.0,-999.0,94,-99.99,,,0.00,Acu-Link.com,2013-12-05 17:19:00,
2013-12-05 12:34:00,53.6,51.9,29.84,SE,135,0.0,-999.0,94,-99.99,,,0.00,Acu-Link.com,2013-12-05 17:34:00,
2013-12-05 12:49:00,53.4,51.7,29.83,SE,135,0.0,-999.0,94,-99.99,,,0.00,Acu-Link.com,2013-12-05 17:49:00,
2013-12-05 13:04:00,53.4,51.7,29.82,East,90,0.0,-999.0,94,-99.99,,,0.00,Acu-Link.com,2013-12-05 18:04:00,
2013-12-05 13:19:00,53.6,51.9,29.84,West,270,2.2,-999.0,94,-99.99,,,0.00,Acu-Link.com,2013-12-05 18:19:00,
2013-12-05 13:35:00,52.9,51.2,29.83,West,270,0.0,-999.0,94,-99.99,,,0.06,Acu-Link.com,2013-12-05 18:35:00,
2013-12-05 13:50:00,52.7,51.3,29.83,West,270,0.0,-999.0,95,-99.99,,,0.08,Acu-Link.com,2013-12-05 18:50:00,
2013-12-05 14:05:00,52.5,51.1,29.84,West,270,0.0,-999.0,95,-99.99,,,0.12,Acu-Link.com,2013-12-05 19:05:00,
2013-12-05 14:21:00,52.3,50.9,29.83,West,270,0.0,-999.0,95,-99.99,,,0.15,Acu-Link.com,2013-12-05 19:21:00,
2013-12-05 14:36:00,52.3,50.9,29.83,West,270,0.0,-999.0,95,-99.99,,,0.18,Acu-Link.com,2013-12-05 19:36:00,
2013-12-05 14:51:00,52.5,51.4,29.82,West,270,0.0,-999.0,96,-99.99,,,0.22,Acu-Link.com,2013-12-05 19:51:00,
2013-12-05 15:07:00,52.5,51.4,29.82,ENE,67,0.0,-999.0,96,-99.99,,,0.23,Acu-Link.com,2013-12-05 20:07:00,
2013-12-05 15:22:00,52.3,51.2,29.82,ENE,67,0.0,-999.0,96,-99.99,,,0.26,Acu-Link.com,2013-12-05 20:22:00,
2013-12-05 15:37:00,52.3,51.2,29.82,ENE,67,0.0,-999.0,96,-99.99,,,0.27,Acu-Link.com,2013-12-05 20:37:00,
2013-12-05 15:52:00,52.3,51.2,29.82,ENE,67,0.0,-999.0,96,-99.99,,,0.27,Acu-Link.com,2013-12-05 20:52:00,
2013-12-05 16:08:00,52.3,51.2,29.82,ENE,67,0.0,-999.0,96,-99.99,,,0.28,Acu-Link.com,2013-12-05 21:08:00,
2013-12-05 16:23:00,52.2,51.4,29.83,ENE,67,0.0,-999.0,97,-99.99,,,0.28,Acu-Link.com,2013-12-05 21:23:00,
2013-12-05 16:38:00,52.2,51.4,29.83,ENE,67,0.0,-999.0,97,-99.99,,,0.28,Acu-Link.com,2013-12-05 21:38:00,
2013-12-05 16:53:00,52.0,51.2,29.83,ENE,67,0.0,-999.0,97,-99.99,,,0.30,Acu-Link.com,2013-12-05 21:53:00,
2013-12-05 17:09:00,51.8,51.0,29.82,ENE,67,0.0,-999.0,97,-99.99,,,0.30,Acu-Link.com,2013-12-05 22:09:00,
2013-12-05 17:24:00,51.6,50.8,29.83,ENE,67,0.0,-999.0,97,-99.99,,,0.30,Acu-Link.com,2013-12-05 22:24:00,
2013-12-05 17:39:00,51.6,50.8,29.83,ENE,67,0.0,-999.0,97,-99.99,,,0.31,Acu-Link.com,2013-12-05 22:39:00,
2013-12-05 17:54:00,51.6,50.8,29.83,ENE,67,0.0,-999.0,97,-99.99,,,0.31,Acu-Link.com,2013-12-05 22:54:00,
2013-12-05 18:09:00,51.6,50.8,29.82,ENE,67,0.0,-999.0,97,-99.99,,,0.31,Acu-Link.com,2013-12-05 23:09:00,
2013-12-05 18:25:00,51.4,50.6,29.82,ENE,67,0.0,-999.0,97,-99.99,,,0.31,Acu-Link.com,2013-12-05 23:25:00,
2013-12-05 18:40:00,51.4,50.6,29.82,ENE,67,0.0,-999.0,97,-99.99,,,0.31,Acu-Link.com,2013-12-05 23:40:00,
2013-12-05 18:55:00,51.3,50.8,29.81,ENE,67,0.0,-999.0,98,-99.99,,,0.31,Acu-Link.com,2013-12-05 23:55:00,
2013-12-05 19:10:00,51.4,50.9,29.82,ENE,67,0.0,-999.0,98,-99.99,,,0.31,Acu-Link.com,2013-12-06 00:10:00,
2013-12-05 19:26:00,51.3,50.8,29.81,ENE,67,0.0,-999.0,98,-99.99,,,0.31,Acu-Link.com,2013-12-06 00:26:00,
2013-12-05 19:41:00,51.3,50.8,29.82,ENE,67,0.0,-999.0,98,-99.99,,,0.31,Acu-Link.com,2013-12-06 00:41:00,
2013-12-05 19:56:00,51.3,50.8,29.83,ENE,67,0.0,-999.0,98,-99.99,,,0.32,Acu-Link.com,2013-12-06 00:56:00,
2013-12-05 20:11:00,51.3,50.8,29.83,ENE,67,0.0,-999.0,98,-99.99,,,0.32,Acu-Link.com,2013-12-06 01:11:00,
2013-12-05 20:26:00,51.3,50.8,29.82,ENE,67,0.0,-999.0,98,-99.99,,,0.32,Acu-Link.com,2013-12-06 01:26:00,
2013-12-05 20:42:00,51.1,50.6,29.81,ENE,67,0.0,-999.0,98,-99.99,,,0.32,Acu-Link.com,2013-12-06 01:42:00,
2013-12-05 20:57:00,50.9,50.4,29.82,ENE,67,0.0,-999.0,98,-99.99,,,0.32,Acu-Link.com,2013-12-06 01:57:00,
2013-12-05 21:12:00,51.1,50.6,29.81,ENE,67,0.0,-999.0,98,-99.99,,,0.32,Acu-Link.com,2013-12-06 02:12:00,
2013-12-05 21:27:00,51.3,51.0,29.81,ENE,67,0.0,-999.0,99,-99.99,,,0.32,Acu-Link.com,2013-12-06 02:27:00,
2013-12-05 21:42:00,51.1,50.8,29.79,ENE,67,0.0,-999.0,99,-99.99,,,0.32,Acu-Link.com,2013-12-06 02:42:00,
2013-12-05 21:58:00,51.1,50.8,29.80,ENE,67,0.0,-999.0,99,-99.99,,,0.32,Acu-Link.com,2013-12-06 02:58:00,
2013-12-05 22:13:00,51.3,51.0,29.81,ENE,67,0.0,-999.0,99,-99.99,,,0.32,Acu-Link.com,2013-12-06 03:13:00,
2013-12-05 22:28:00,51.1,50.8,29.79,ENE,67,0.0,-999.0,99,-99.99,,,0.32,Acu-Link.com,2013-12-06 03:28:00,
2013-12-05 22:43:00,50.9,50.6,29.79,ENE,67,0.0,-999.0,99,-99.99,,,0.33,Acu-Link.com,2013-12-06 03:43:00,
2013-12-05 22:58:00,50.9,50.6,29.78,ENE,67,0.0,-999.0,99,-99.99,,,0.33,Acu-Link.com,2013-12-06 03:58:00,
2013-12-05 23:14:00,50.9,50.6,29.80,ENE,67,0.0,-999.0,99,-99.99,,,0.34,Acu-Link.com,2013-12-06 04:14:00,
2013-12-05 23:29:00,51.1,50.8,29.80,ENE,67,0.0,-999.0,99,-99.99,,,0.36,Acu-Link.com,2013-12-06 04:29:00,
2013-12-05 23:44:00,51.1,50.8,29.78,ENE,67,0.0,-999.0,99,-99.99,,,0.36,Acu-Link.com,2013-12-06 04:44:00,
2013-12-05 23:59:00,51.1,50.8,29.79,ENE,67,0.0,-999.0,99,-99.99,,,0.36,Acu-Link.com,2013-12-06 04:59:00,